Durham, New Hampshire
Current Conditions -  °F | °C
As of 5:58 PM on Thursday 18 Dec 2014 (Local Time) from KPSM Reporting Station
Broken Clouds Broken Clouds  
Wind Chill: 29°   Ceiling: 3400
Heat Index: 39°   Visibility: 10mi
Dew Point: 27°   Wind: 18mph
Humidity: 62%   Direction: 290°WNW
Pressure: 29.78"   Gusts: 25mph
Location:  43.13°N, 70.92°W
Report Text: KPSM 182258Z 29016G22KT 10SM BKN034 BKN060 04/M03 A2978 RMK AO2A SLP089 T00371029
Loading
Personal Weather Stations






























Interactive Weather Map New forecast layout! Learn more

10-Day Weather Forecast

Advertisements
Track Severe Weather on mobile